Time,TemperatureF,DewpointF,PressureIn,WindDirection,WindDirectionDegrees,WindSpeedMPH,WindSpeedGustMPH,Humidity,HourlyPrecipIn,Conditions,Clouds,dailyrainin,SoftwareType,DateUTC
2016-07-24 00:03:00,76.8,71.9,29.94,North,355,0.0,0.0,85,0.00,,,0.00,Wunderground v.1.15,2016-07-24 04:03:00,
2016-07-24 00:09:00,76.8,71.9,29.94,North,355,0.0,0.0,85,0.00,,,0.00,Wunderground v.1.15,2016-07-24 04:09:00,
2016-07-24 00:15:00,76.7,71.8,29.94,North,355,0.0,0.0,85,0.00,,,0.00,Wunderground v.1.15,2016-07-24 04:15:00,
2016-07-24 00:20:00,76.5,72.0,29.94,North,355,0.0,0.0,86,0.00,,,0.00,Wunderground v.1.15,2016-07-24 04:20:00,
2016-07-24 00:26:00,76.5,72.0,29.94,North,355,0.0,0.0,86,0.00,,,0.00,Wunderground v.1.15,2016-07-24 04:26:00,
2016-07-24 00:32:00,76.3,71.8,29.93,North,355,0.0,0.0,86,0.00,,,0.00,Wunderground v.1.15,2016-07-24 04:32:00,
2016-07-24 00:37:00,76.1,71.9,29.93,North,355,0.0,0.0,87,0.00,,,0.00,Wunderground v.1.15,2016-07-24 04:37:00,
2016-07-24 00:43:00,76.0,71.8,29.93,North,355,0.0,0.0,87,0.00,,,0.00,Wunderground v.1.15,2016-07-24 04:43:00,
2016-07-24 00:49:00,76.0,72.2,29.93,North,355,0.0,0.0,88,0.00,,,0.00,Wunderground v.1.15,2016-07-24 04:49:00,
2016-07-24 00:54:00,75.8,72.0,29.93,North,355,0.0,0.0,88,0.00,,,0.00,Wunderground v.1.15,2016-07-24 04:54:00,
2016-07-24 01:00:00,75.8,72.0,29.93,North,355,0.0,0.0,88,0.00,,,0.00,Wunderground v.1.15,2016-07-24 05:00:00,
2016-07-24 01:06:00,75.6,71.8,29.93,North,355,0.0,0.0,88,0.00,,,0.00,Wunderground v.1.15,2016-07-24 05:06:00,
2016-07-24 01:11:00,75.6,71.8,29.93,North,355,0.0,0.0,88,0.00,,,0.00,Wunderground v.1.15,2016-07-24 05:11:00,
2016-07-24 01:17:00,75.6,71.8,29.93,North,355,0.0,0.0,88,0.00,,,0.00,Wunderground v.1.15,2016-07-24 05:17:00,
2016-07-24 01:22:00,75.4,71.9,29.93,North,355,0.0,0.0,89,0.00,,,0.00,Wunderground v.1.15,2016-07-24 05:22:00,
2016-07-24 01:28:00,75.4,71.9,29.93,North,355,0.0,0.0,89,0.00,,,0.00,Wunderground v.1.15,2016-07-24 05:28:00,
2016-07-24 01:34:00,75.3,71.8,29.92,North,355,0.0,0.0,89,0.00,,,0.00,Wunderground v.1.15,2016-07-24 05:34:00,
2016-07-24 01:40:00,75.3,71.8,29.92,North,355,0.0,0.0,89,0.00,,,0.00,Wunderground v.1.15,2016-07-24 05:40:00,
2016-07-24 01:45:00,75.3,71.8,29.92,North,355,0.0,0.0,89,0.00,,,0.00,Wunderground v.1.15,2016-07-24 05:45:00,
2016-07-24 01:51:00,75.1,71.6,29.92,North,355,0.0,0.0,89,0.00,,,0.00,Wunderground v.1.15,2016-07-24 05:51:00,
2016-07-24 01:56:00,75.1,71.6,29.92,North,355,0.0,0.0,89,0.00,,,0.00,Wunderground v.1.15,2016-07-24 05:56:00,
2016-07-24 02:01:00,74.9,71.4,29.92,North,355,0.0,0.0,89,0.00,,,0.00,Wunderground v.1.15,2016-07-24 06:01:00,
2016-07-24 02:06:00,74.9,71.4,29.93,North,355,0.0,0.0,89,0.00,,,0.00,Wunderground v.1.15,2016-07-24 06:06:00,
2016-07-24 02:11:00,74.9,71.4,29.93,North,355,0.0,0.0,89,0.00,,,0.00,Wunderground v.1.15,2016-07-24 06:11:00,
2016-07-24 02:16:00,74.9,71.4,29.93,North,355,0.0,0.0,89,0.00,,,0.00,Wunderground v.1.15,2016-07-24 06:16:00,
2016-07-24 02:21:00,74.7,71.2,29.93,North,355,0.0,0.0,89,0.00,,,0.00,Wunderground v.1.15,2016-07-24 06:21:00,
2016-07-24 02:26:00,74.7,71.2,29.93,North,355,0.0,0.0,89,0.00,,,0.00,Wunderground v.1.15,2016-07-24 06:26:00,
2016-07-24 02:31:00,74.7,71.2,29.93,North,355,0.0,0.0,89,0.00,,,0.00,Wunderground v.1.15,2016-07-24 06:31:00,
2016-07-24 02:36:00,74.6,71.1,29.94,North,355,0.0,0.0,89,0.00,,,0.00,Wunderground v.1.15,2016-07-24 06:36:00,
2016-07-24 02:41:00,74.6,71.1,29.94,North,355,0.0,0.0,89,0.00,,,0.00,Wunderground v.1.15,2016-07-24 06:41:00,
2016-07-24 02:46:00,74.6,71.1,29.94,North,355,0.0,0.0,89,0.00,,,0.00,Wunderground v.1.15,2016-07-24 06:46:00,
2016-07-24 02:51:00,74.6,71.1,29.93,North,355,0.0,0.0,89,0.00,,,0.00,Wunderground v.1.15,2016-07-24 06:51:00,
2016-07-24 02:56:00,74.4,71.3,29.93,North,355,0.0,0.0,90,0.00,,,0.00,Wunderground v.1.15,2016-07-24 06:56:00,
2016-07-24 03:01:00,74.2,71.1,29.93,North,355,0.0,0.0,90,0.00,,,0.00,Wunderground v.1.15,2016-07-24 07:01:00,
2016-07-24 03:06:00,74.2,71.1,29.93,North,355,0.0,0.0,90,0.00,,,0.00,Wunderground v.1.15,2016-07-24 07:06:00,
2016-07-24 03:11:00,74.2,71.1,29.93,North,355,0.0,0.0,90,0.00,,,0.00,Wunderground v.1.15,2016-07-24 07:11:00,
2016-07-24 03:16:00,74.0,71.2,29.93,North,355,0.0,0.0,91,0.00,,,0.00,Wunderground v.1.15,2016-07-24 07:16:00,
2016-07-24 03:21:00,74.0,71.2,29.93,North,355,0.0,0.0,91,0.00,,,0.00,Wunderground v.1.15,2016-07-24 07:21:00,
2016-07-24 03:26:00,73.9,71.1,29.93,North,355,0.0,0.0,91,0.00,,,0.00,Wunderground v.1.15,2016-07-24 07:26:00,
2016-07-24 03:31:00,73.9,71.4,29.93,North,355,0.0,0.0,92,0.00,,,0.00,Wunderground v.1.15,2016-07-24 07:31:00,
2016-07-24 03:36:00,73.9,71.4,29.93,North,355,0.0,0.0,92,0.00,,,0.00,Wunderground v.1.15,2016-07-24 07:36:00,
2016-07-24 03:42:00,73.7,71.2,29.93,North,355,0.0,0.0,92,0.00,,,0.00,Wunderground v.1.15,2016-07-24 07:42:00,
2016-07-24 03:47:00,73.7,71.2,29.92,North,355,0.0,0.0,92,0.00,,,0.00,Wunderground v.1.15,2016-07-24 07:47:00,
2016-07-24 03:52:00,73.7,71.5,29.92,North,355,0.0,0.0,93,0.00,,,0.00,Wunderground v.1.15,2016-07-24 07:52:00,
2016-07-24 03:57:00,73.5,71.4,29.92,North,355,0.0,0.0,93,0.00,,,0.00,Wunderground v.1.15,2016-07-24 07:57:00,
2016-07-24 04:02:00,73.5,71.4,29.93,North,355,0.0,0.0,93,0.00,,,0.00,Wunderground v.1.15,2016-07-24 08:02:00,
2016-07-24 04:07:00,73.5,71.4,29.93,North,355,0.0,0.0,93,0.00,,,0.00,Wunderground v.1.15,2016-07-24 08:07:00,
2016-07-24 04:12:00,73.5,71.7,29.93,North,355,0.0,0.0,94,0.00,,,0.00,Wunderground v.1.15,2016-07-24 08:12:00,
2016-07-24 04:17:00,73.5,71.7,29.93,North,355,0.0,0.0,94,0.00,,,0.00,Wunderground v.1.15,2016-07-24 08:17:00,
2016-07-24 04:22:00,73.5,71.7,29.93,North,355,0.0,0.0,94,0.00,,,0.00,Wunderground v.1.15,2016-07-24 08:22:00,
2016-07-24 04:27:00,73.3,71.5,29.93,North,355,0.0,0.0,94,0.00,,,0.00,Wunderground v.1.15,2016-07-24 08:27:00,
2016-07-24 04:32:00,73.3,71.5,29.93,North,355,0.0,0.0,94,0.00,,,0.00,Wunderground v.1.15,2016-07-24 08:32:00,
2016-07-24 04:37:00,73.3,71.8,29.93,North,355,0.0,0.0,95,0.00,,,0.00,Wunderground v.1.15,2016-07-24 08:37:00,
2016-07-24 04:47:00,73.5,72.0,29.93,North,355,0.0,0.0,95,0.00,,,0.00,Wunderground v.1.15,2016-07-24 08:47:00,
2016-07-24 04:52:00,73.5,72.0,29.93,North,355,0.0,0.0,95,0.00,,,0.00,Wunderground v.1.15,2016-07-24 08:52:00,
2016-07-24 04:57:00,73.7,72.2,29.93,North,355,0.0,0.0,95,0.00,,,0.00,Wunderground v.1.15,2016-07-24 08:57:00,
2016-07-24 05:02:00,73.7,72.2,29.93,North,355,0.0,0.0,95,0.00,,,0.00,Wunderground v.1.15,2016-07-24 09:02:00,
2016-07-24 05:07:00,73.7,72.2,29.93,North,355,0.0,0.0,95,0.00,,,0.00,Wunderground v.1.15,2016-07-24 09:07:00,
2016-07-24 05:12:00,73.7,72.2,29.93,North,355,0.0,0.0,95,0.00,,,0.00,Wunderground v.1.15,2016-07-24 09:12:00,
2016-07-24 05:17:00,73.7,72.2,29.93,North,355,0.0,0.0,95,0.00,,,0.00,Wunderground v.1.15,2016-07-24 09:17:00,
2016-07-24 05:22:00,73.7,72.2,29.93,North,355,0.0,0.0,95,0.00,,,0.00,Wunderground v.1.15,2016-07-24 09:22:00,
2016-07-24 05:27:00,73.7,72.2,29.93,North,355,0.0,0.0,95,0.00,,,0.00,Wunderground v.1.15,2016-07-24 09:27:00,
2016-07-24 05:32:00,73.5,72.0,29.94,North,355,0.0,0.0,95,0.00,,,0.00,Wunderground v.1.15,2016-07-24 09:32:00,
2016-07-24 05:37:00,73.5,72.0,29.94,North,355,0.0,0.0,95,0.00,,,0.00,Wunderground v.1.15,2016-07-24 09:37:00,
2016-07-24 05:42:00,73.5,72.0,29.94,North,355,0.0,0.0,95,0.00,,,0.00,Wunderground v.1.15,2016-07-24 09:42:00,
2016-07-24 05:47:00,73.7,72.2,29.94,North,355,0.0,0.0,95,0.00,,,0.00,Wunderground v.1.15,2016-07-24 09:47:00,
2016-07-24 05:52:00,73.7,72.5,29.94,North,355,0.0,0.0,96,0.00,,,0.00,Wunderground v.1.15,2016-07-24 09:52:00,
2016-07-24 05:57:00,73.7,72.5,29.94,North,355,0.0,0.0,96,0.00,,,0.00,Wunderground v.1.15,2016-07-24 09:57:00,
2016-07-24 06:02:00,73.9,72.7,29.94,North,355,0.0,0.0,96,0.00,,,0.00,Wunderground v.1.15,2016-07-24 10:02:00,
2016-07-24 06:07:00,73.9,72.7,29.94,North,355,0.0,0.0,96,0.00,,,0.00,Wunderground v.1.15,2016-07-24 10:07:00,
2016-07-24 06:12:00,73.9,72.7,29.94,North,355,0.0,0.0,96,0.00,,,0.00,Wunderground v.1.15,2016-07-24 10:12:00,
2016-07-24 06:17:00,73.9,72.7,29.93,North,355,0.0,0.0,96,0.00,,,0.00,Wunderground v.1.15,2016-07-24 10:17:00,
2016-07-24 06:22:00,73.7,72.5,29.93,North,355,0.0,0.0,96,0.00,,,0.00,Wunderground v.1.15,2016-07-24 10:22:00,
2016-07-24 06:27:00,73.7,72.5,29.93,North,355,0.0,0.0,96,0.00,,,0.00,Wunderground v.1.15,2016-07-24 10:27:00,
2016-07-24 06:32:00,73.5,72.3,29.94,North,355,0.0,0.0,96,0.00,,,0.00,Wunderground v.1.15,2016-07-24 10:32:00,
2016-07-24 06:37:00,73.5,72.3,29.94,North,355,0.0,0.0,96,0.00,,,0.00,Wunderground v.1.15,2016-07-24 10:37:00,
2016-07-24 06:42:00,73.5,72.3,29.94,North,355,0.0,0.0,96,0.00,,,0.00,Wunderground v.1.15,2016-07-24 10:42:00,
2016-07-24 06:47:00,73.5,72.3,29.94,North,355,0.0,0.0,96,0.00,,,0.00,Wunderground v.1.15,2016-07-24 10:47:00,
2016-07-24 06:52:00,73.5,72.3,29.94,North,355,0.0,0.0,96,0.00,,,0.00,Wunderground v.1.15,2016-07-24 10:52:00,
2016-07-24 06:57:00,73.3,72.1,29.94,North,355,0.0,0.0,96,0.00,,,0.00,Wunderground v.1.15,2016-07-24 10:57:00,
2016-07-24 07:02:00,73.3,72.1,29.94,North,355,0.0,0.0,96,0.00,,,0.00,Wunderground v.1.15,2016-07-24 11:02:00,
2016-07-24 07:07:00,73.5,72.3,29.94,North,355,0.0,0.0,96,0.00,,,0.00,Wunderground v.1.15,2016-07-24 11:07:00,
2016-07-24 07:12:00,73.5,72.3,29.94,North,355,0.0,0.0,96,0.00,,,0.00,Wunderground v.1.15,2016-07-24 11:12:00,
2016-07-24 07:17:00,73.5,72.3,29.93,North,355,0.0,0.0,96,0.00,,,0.00,Wunderground v.1.15,2016-07-24 11:17:00,
2016-07-24 07:22:00,73.5,72.3,29.93,North,355,0.0,0.0,96,0.00,,,0.00,Wunderground v.1.15,2016-07-24 11:22:00,
2016-07-24 07:27:00,73.7,72.5,29.93,North,355,0.0,0.0,96,0.00,,,0.00,Wunderground v.1.15,2016-07-24 11:27:00,
2016-07-24 07:32:00,73.9,72.7,29.93,North,355,0.0,0.0,96,0.00,,,0.00,Wunderground v.1.15,2016-07-24 11:32:00,
2016-07-24 07:37:00,73.9,73.0,29.93,North,355,0.0,0.0,97,0.00,,,0.00,Wunderground v.1.15,2016-07-24 11:37:00,
2016-07-24 07:42:00,74.0,73.1,29.93,West,265,0.0,0.0,97,0.00,,,0.00,Wunderground v.1.15,2016-07-24 11:42:00,
2016-07-24 07:47:00,74.2,73.3,29.93,West,265,0.0,0.0,97,0.00,,,0.00,Wunderground v.1.15,2016-07-24 11:47:00,
2016-07-24 07:53:00,74.4,73.5,29.93,West,266,0.0,0.0,97,0.00,,,0.00,Wunderground v.1.15,2016-07-24 11:53:00,
2016-07-24 07:58:00,74.6,73.7,29.93,West,266,0.0,0.0,97,0.00,,,0.00,Wunderground v.1.15,2016-07-24 11:58:00,
2016-07-24 08:03:00,74.9,74.0,29.93,West,266,0.0,0.0,97,0.00,,,0.00,Wunderground v.1.15,2016-07-24 12:03:00,
2016-07-24 08:08:00,75.1,74.2,29.93,West,266,0.0,0.0,97,0.00,,,0.00,Wunderground v.1.15,2016-07-24 12:08:00,
2016-07-24 08:13:00,75.4,74.5,29.93,WNW,302,0.0,0.0,97,0.00,,,0.00,Wunderground v.1.15,2016-07-24 12:13:00,
2016-07-24 08:18:00,75.6,74.4,29.94,WNW,302,0.0,0.0,96,0.00,,,0.00,Wunderground v.1.15,2016-07-24 12:18:00,
2016-07-24 08:23:00,75.8,74.6,29.94,WNW,302,0.0,0.0,96,0.00,,,0.00,Wunderground v.1.15,2016-07-24 12:23:00,
2016-07-24 08:28:00,76.0,74.5,29.94,WSW,248,0.0,4.0,95,0.00,,,0.00,Wunderground v.1.15,2016-07-24 12:28:00,
2016-07-24 08:33:00,76.1,74.2,29.94,WSW,248,0.0,0.0,94,0.00,,,0.00,Wunderground v.1.15,2016-07-24 12:33:00,
2016-07-24 08:38:00,76.5,74.6,29.94,WSW,248,0.0,1.0,94,0.00,,,0.00,Wunderground v.1.15,2016-07-24 12:38:00,
2016-07-24 08:43:00,76.8,74.6,29.94,WSW,248,0.0,0.0,93,0.00,,,0.00,Wunderground v.1.15,2016-07-24 12:43:00,
2016-07-24 08:48:00,77.2,74.7,29.95,WSW,248,0.0,0.0,92,0.00,,,0.00,Wunderground v.1.15,2016-07-24 12:48:00,
2016-07-24 08:53:00,77.6,74.4,29.95,WSW,248,0.0,0.0,90,0.00,,,0.00,Wunderground v.1.15,2016-07-24 12:53:00,
2016-07-24 08:58:00,77.9,74.4,29.95,WSW,248,0.0,0.0,89,0.00,,,0.00,Wunderground v.1.15,2016-07-24 12:58:00,
2016-07-24 09:03:00,78.5,74.6,29.95,WSW,248,0.0,0.0,88,0.00,,,0.00,Wunderground v.1.15,2016-07-24 13:03:00,
2016-07-24 09:08:00,79.0,74.1,29.95,WSW,248,0.0,1.0,85,0.00,,,0.00,Wunderground v.1.15,2016-07-24 13:08:00,
2016-07-24 09:13:00,79.4,74.1,29.95,WSW,248,0.0,0.0,84,0.00,,,0.00,Wunderground v.1.15,2016-07-24 13:13:00,
2016-07-24 09:18:00,79.9,73.9,29.95,WSW,248,0.0,0.0,82,0.00,,,0.00,Wunderground v.1.15,2016-07-24 13:18:00,
2016-07-24 09:23:00,80.5,73.8,29.95,WNW,284,0.0,1.0,80,0.00,,,0.00,Wunderground v.1.15,2016-07-24 13:23:00,
2016-07-24 09:28:00,81.1,73.6,29.95,NW,325,0.0,4.0,78,0.00,,,0.00,Wunderground v.1.15,2016-07-24 13:28:00,
2016-07-24 09:33:00,81.4,73.1,29.95,NW,325,0.0,1.0,76,0.00,,,0.00,Wunderground v.1.15,2016-07-24 13:33:00,
2016-07-24 09:38:00,82.2,73.5,29.95,NW,326,0.0,1.0,75,0.00,,,0.00,Wunderground v.1.15,2016-07-24 13:38:00,
2016-07-24 09:43:00,82.8,72.8,29.95,NW,312,0.0,4.0,72,0.00,,,0.00,Wunderground v.1.15,2016-07-24 13:43:00,
2016-07-24 09:48:00,83.0,73.0,29.96,WNW,296,0.0,4.0,72,0.00,,,0.00,Wunderground v.1.15,2016-07-24 13:48:00,
2016-07-24 09:53:00,83.6,73.2,29.96,SW,229,0.0,1.0,71,0.00,,,0.00,Wunderground v.1.15,2016-07-24 13:53:00,
2016-07-24 09:58:00,84.1,72.8,29.96,SW,223,0.0,1.0,69,0.00,,,0.00,Wunderground v.1.15,2016-07-24 13:58:00,
2016-07-24 10:03:00,84.0,72.3,29.96,SW,221,0.0,1.0,68,0.00,,,0.00,Wunderground v.1.15,2016-07-24 14:03:00,
2016-07-24 10:08:00,83.8,72.1,29.96,SW,221,0.0,1.0,68,0.00,,,0.00,Wunderground v.1.15,2016-07-24 14:08:00,
2016-07-24 10:13:00,83.8,72.1,29.96,SE,125,0.0,0.0,68,0.00,,,0.00,Wunderground v.1.15,2016-07-24 14:13:00,
2016-07-24 10:18:00,84.0,72.3,29.96,South,184,0.0,1.0,68,0.00,,,0.00,Wunderground v.1.15,2016-07-24 14:18:00,
2016-07-24 10:23:00,84.1,72.4,29.96,South,184,0.0,1.0,68,0.00,,,0.00,Wunderground v.1.15,2016-07-24 14:23:00,
2016-07-24 10:28:00,84.7,73.0,29.96,South,184,0.0,1.0,68,0.00,,,0.00,Wunderground v.1.15,2016-07-24 14:28:00,
2016-07-24 10:33:00,84.9,71.8,29.96,WSW,237,0.0,0.0,65,0.00,,,0.00,Wunderground v.1.15,2016-07-24 14:33:00,
2016-07-24 10:38:00,85.3,72.2,29.96,SW,222,0.0,2.0,65,0.00,,,0.00,Wunderground v.1.15,2016-07-24 14:38:00,
2016-07-24 10:43:00,86.1,73.4,29.96,SW,222,0.0,0.0,66,0.00,,,0.00,Wunderground v.1.15,2016-07-24 14:43:00,
2016-07-24 10:48:00,86.7,72.6,29.96,SW,222,0.0,1.0,63,0.00,,,0.00,Wunderground v.1.15,2016-07-24 14:48:00,
2016-07-24 10:53:00,86.7,72.1,29.96,South,179,0.0,2.0,62,0.00,,,0.00,Wunderground v.1.15,2016-07-24 14:53:00,
2016-07-24 10:58:00,87.2,72.1,29.96,WSW,249,0.0,2.0,61,0.00,,,0.00,Wunderground v.1.15,2016-07-24 14:58:00,
2016-07-24 11:03:00,87.0,71.9,29.96,WSW,248,0.0,1.0,61,0.00,,,0.00,Wunderground v.1.15,2016-07-24 15:03:00,
2016-07-24 11:08:00,86.7,71.6,29.96,SE,146,0.0,1.0,61,0.00,,,0.00,Wunderground v.1.15,2016-07-24 15:08:00,
2016-07-24 11:13:00,86.7,71.6,29.96,SW,215,1.0,1.0,61,0.00,,,0.00,Wunderground v.1.15,2016-07-24 15:13:00,
2016-07-24 11:18:00,87.0,72.4,29.96,West,271,1.0,5.0,62,0.00,,,0.00,Wunderground v.1.15,2016-07-24 15:18:00,
2016-07-24 11:23:00,87.2,73.1,29.96,West,271,0.0,4.0,63,0.00,,,0.00,Wunderground v.1.15,2016-07-24 15:23:00,
2016-07-24 11:29:00,87.4,73.3,29.96,West,270,0.0,4.0,63,0.00,,,0.00,Wunderground v.1.15,2016-07-24 15:29:00,
2016-07-24 11:34:00,87.6,72.0,29.96,SSW,192,0.0,6.0,60,0.00,,,0.00,Wunderground v.1.15,2016-07-24 15:34:00,
2016-07-24 11:39:00,87.6,72.5,29.96,South,188,4.0,9.0,61,0.00,,,0.00,Wunderground v.1.15,2016-07-24 15:39:00,
2016-07-24 11:44:00,87.4,72.3,29.96,SW,227,1.0,6.0,61,0.00,,,0.00,Wunderground v.1.15,2016-07-24 15:44:00,
2016-07-24 11:49:00,87.4,71.8,29.96,South,178,0.0,6.0,60,0.00,,,0.00,Wunderground v.1.15,2016-07-24 15:49:00,
2016-07-24 11:54:00,87.4,71.8,29.96,SW,219,0.0,6.0,60,0.00,,,0.00,Wunderground v.1.15,2016-07-24 15:54:00,
2016-07-24 11:59:00,87.4,71.8,29.96,SW,232,2.0,9.0,60,0.00,,,0.00,Wunderground v.1.15,2016-07-24 15:59:00,
2016-07-24 12:04:00,87.6,71.5,29.95,SSW,210,0.0,4.0,59,0.00,,,0.00,Wunderground v.1.15,2016-07-24 16:04:00,
2016-07-24 12:09:00,88.2,72.1,29.95,SSW,213,0.0,6.0,59,0.00,,,0.00,Wunderground v.1.15,2016-07-24 16:09:00,
2016-07-24 12:14:00,88.6,71.9,29.95,NW,322,2.0,3.0,58,0.00,,,0.00,Wunderground v.1.15,2016-07-24 16:14:00,
2016-07-24 12:19:00,88.8,72.6,29.95,South,183,0.0,4.0,59,0.00,,,0.00,Wunderground v.1.15,2016-07-24 16:19:00,
2016-07-24 12:24:00,88.6,71.9,29.95,South,183,0.0,0.0,58,0.00,,,0.00,Wunderground v.1.15,2016-07-24 16:24:00,
2016-07-24 12:34:00,88.6,71.9,29.95,South,188,0.0,6.0,58,0.00,,,0.00,Wunderground v.1.15,2016-07-24 16:34:00,
2016-07-24 12:39:00,88.6,71.9,29.95,SSW,202,0.0,6.0,58,0.00,,,0.00,Wunderground v.1.15,2016-07-24 16:39:00,
2016-07-24 12:44:00,89.0,71.3,29.95,South,180,0.0,5.0,56,0.00,,,0.00,Wunderground v.1.15,2016-07-24 16:44:00,
2016-07-24 12:49:00,89.7,73.5,29.95,South,180,0.0,5.0,59,0.00,,,0.00,Wunderground v.1.15,2016-07-24 16:49:00,
2016-07-24 12:54:00,89.9,72.1,29.95,SSE,165,4.0,6.0,56,0.00,,,0.00,Wunderground v.1.15,2016-07-24 16:54:00,
2016-07-24 12:59:00,89.3,70.5,29.95,South,179,0.0,6.0,54,0.00,,,0.00,Wunderground v.1.15,2016-07-24 16:59:00,
2016-07-24 13:04:00,89.7,71.4,29.94,WNW,285,0.0,5.0,55,0.00,,,0.00,Wunderground v.1.15,2016-07-24 17:04:00,
2016-07-24 13:09:00,89.9,70.5,29.94,SSW,194,0.0,6.0,53,0.00,,,0.00,Wunderground v.1.15,2016-07-24 17:09:00,
2016-07-24 13:14:00,90.5,72.7,29.94,SSE,157,0.0,1.0,56,0.00,,,0.00,Wunderground v.1.15,2016-07-24 17:14:00,
2016-07-24 13:19:00,91.2,72.8,29.94,SSE,157,0.0,1.0,55,0.00,,,0.00,Wunderground v.1.15,2016-07-24 17:19:00,
2016-07-24 13:24:00,91.0,71.5,29.94,South,171,5.0,9.0,53,0.00,,,0.00,Wunderground v.1.15,2016-07-24 17:24:00,
2016-07-24 13:29:00,91.2,71.1,29.94,WNW,282,1.0,9.0,52,0.00,,,0.00,Wunderground v.1.15,2016-07-24 17:29:00,
2016-07-24 13:34:00,91.0,71.5,29.94,WNW,282,0.0,1.0,53,0.00,,,0.00,Wunderground v.1.15,2016-07-24 17:34:00,
2016-07-24 13:39:00,91.0,72.6,29.94,South,190,6.0,6.0,55,0.00,,,0.00,Wunderground v.1.15,2016-07-24 17:39:00,
2016-07-24 13:44:00,90.5,71.6,29.94,West,265,0.0,5.0,54,0.00,,,0.00,Wunderground v.1.15,2016-07-24 17:44:00,
2016-07-24 13:49:00,90.7,72.8,29.94,West,265,0.0,5.0,56,0.00,,,0.00,Wunderground v.1.15,2016-07-24 17:49:00,
2016-07-24 13:54:00,91.0,71.5,29.94,SW,232,0.0,5.0,53,0.00,,,0.00,Wunderground v.1.15,2016-07-24 17:54:00,
2016-07-24 14:04:00,91.0,70.9,29.94,West,270,0.0,8.0,52,0.00,,,0.00,Wunderground v.1.15,2016-07-24 18:04:00,
2016-07-24 14:09:00,91.0,70.9,29.94,South,186,0.0,8.0,52,0.00,,,0.00,Wunderground v.1.15,2016-07-24 18:09:00,
2016-07-24 14:14:00,91.4,71.9,29.94,SSW,194,0.0,4.0,53,0.00,,,0.00,Wunderground v.1.15,2016-07-24 18:14:00,
2016-07-24 14:19:00,91.8,73.3,29.93,SSW,193,0.0,4.0,55,0.00,,,0.00,Wunderground v.1.15,2016-07-24 18:19:00,
2016-07-24 14:24:00,92.1,70.8,29.93,South,188,0.0,3.0,50,0.00,,,0.00,Wunderground v.1.15,2016-07-24 18:24:00,
2016-07-24 14:29:00,92.3,72.1,29.93,South,188,5.0,10.0,52,0.00,,,0.00,Wunderground v.1.15,2016-07-24 18:29:00,
2016-07-24 14:39:00,92.3,72.1,29.93,SSW,194,0.0,6.0,52,0.00,,,0.00,Wunderground v.1.15,2016-07-24 18:39:00,
2016-07-24 14:44:00,91.8,71.1,29.93,South,179,0.0,8.0,51,0.00,,,0.00,Wunderground v.1.15,2016-07-24 18:44:00,
2016-07-24 14:49:00,91.4,72.4,29.93,WSW,254,2.0,8.0,54,0.00,,,0.00,Wunderground v.1.15,2016-07-24 18:49:00,
2016-07-24 14:54:00,91.8,72.2,29.93,SSW,198,0.0,6.0,53,0.00,,,0.00,Wunderground v.1.15,2016-07-24 18:54:00,
2016-07-24 14:59:00,92.5,71.7,29.93,SSW,198,0.0,6.0,51,0.00,,,0.00,Wunderground v.1.15,2016-07-24 18:59:00,
2016-07-24 15:04:00,93.2,71.2,29.92,WSW,241,0.0,5.0,49,0.00,,,0.00,Wunderground v.1.15,2016-07-24 19:04:00,
2016-07-24 15:09:00,92.9,69.7,29.92,SSW,213,0.0,7.0,47,0.00,,,0.00,Wunderground v.1.15,2016-07-24 19:09:00,
2016-07-24 15:14:00,92.9,70.3,29.92,SW,234,0.0,1.0,48,0.00,,,0.00,Wunderground v.1.15,2016-07-24 19:14:00,
2016-07-24 15:19:00,92.7,70.1,29.92,West,274,0.0,6.0,48,0.00,,,0.00,Wunderground v.1.15,2016-07-24 19:19:00,
2016-07-24 15:24:00,92.7,69.5,29.92,West,273,1.0,6.0,47,0.00,,,0.00,Wunderground v.1.15,2016-07-24 19:24:00,
2016-07-24 15:29:00,93.2,70.0,29.92,WNW,284,0.0,6.0,47,0.00,,,0.00,Wunderground v.1.15,2016-07-24 19:29:00,
2016-07-24 15:34:00,93.4,69.5,29.92,WNW,284,0.0,5.0,46,0.00,,,0.00,Wunderground v.1.15,2016-07-24 19:34:00,
2016-07-24 15:39:00,93.8,71.7,29.92,WNW,283,0.0,5.0,49,0.00,,,0.00,Wunderground v.1.15,2016-07-24 19:39:00,
2016-07-24 15:44:00,93.4,72.0,29.92,West,280,1.0,5.0,50,0.00,,,0.00,Wunderground v.1.15,2016-07-24 19:44:00,
2016-07-24 15:49:00,93.4,70.8,29.92,West,269,0.0,5.0,48,0.00,,,0.00,Wunderground v.1.15,2016-07-24 19:49:00,
2016-07-24 15:54:00,93.4,72.6,29.92,West,265,0.0,1.0,51,0.00,,,0.00,Wunderground v.1.15,2016-07-24 19:54:00,
2016-07-24 15:59:00,92.9,70.9,29.92,WSW,253,0.0,6.0,49,0.00,,,0.00,Wunderground v.1.15,2016-07-24 19:59:00,
2016-07-24 16:04:00,92.3,71.6,29.92,SW,230,0.0,5.0,51,0.00,,,0.00,Wunderground v.1.15,2016-07-24 20:04:00,
2016-07-24 16:09:00,91.6,70.9,29.92,West,271,0.0,5.0,51,0.00,,,0.00,Wunderground v.1.15,2016-07-24 20:09:00,
2016-07-24 16:14:00,91.8,72.2,29.92,SW,229,0.0,4.0,53,0.00,,,0.00,Wunderground v.1.15,2016-07-24 20:14:00,
2016-07-24 16:19:00,92.5,72.9,29.91,West,261,0.0,8.0,53,0.00,,,0.00,Wunderground v.1.15,2016-07-24 20:19:00,
2016-07-24 16:24:00,92.5,72.3,29.91,West,264,1.0,2.0,52,0.00,,,0.00,Wunderground v.1.15,2016-07-24 20:24:00,
2016-07-24 16:29:00,92.3,72.7,29.91,West,265,0.0,2.0,53,0.00,,,0.00,Wunderground v.1.15,2016-07-24 20:29:00,
2016-07-24 16:35:00,92.1,71.9,29.91,West,264,0.0,1.0,52,0.00,,,0.00,Wunderground v.1.15,2016-07-24 20:35:00,
2016-07-24 16:40:00,92.3,71.6,29.91,West,271,0.0,0.0,51,0.00,,,0.00,Wunderground v.1.15,2016-07-24 20:40:00,
2016-07-24 16:45:00,92.5,73.4,29.91,NW,308,0.0,2.0,54,0.00,,,0.00,Wunderground v.1.15,2016-07-24 20:45:00,
2016-07-24 16:50:00,92.7,74.2,29.91,NW,313,0.0,0.0,55,0.00,,,0.00,Wunderground v.1.15,2016-07-24 20:50:00,
2016-07-24 16:55:00,92.5,74.0,29.91,WNW,298,1.0,5.0,55,0.00,,,0.00,Wunderground v.1.15,2016-07-24 20:55:00,
2016-07-24 17:00:00,92.1,73.6,29.91,SSW,203,0.0,1.0,55,0.00,,,0.00,Wunderground v.1.15,2016-07-24 21:00:00,
2016-07-24 17:05:00,91.8,73.3,29.91,WNW,284,0.0,7.0,55,0.00,,,0.00,Wunderground v.1.15,2016-07-24 21:05:00,
2016-07-24 17:10:00,91.8,73.9,29.91,WSW,256,0.0,1.0,56,0.00,,,0.00,Wunderground v.1.15,2016-07-24 21:10:00,
2016-07-24 17:15:00,91.6,73.1,29.91,WSW,255,1.0,6.0,55,0.00,,,0.00,Wunderground v.1.15,2016-07-24 21:15:00,
2016-07-24 17:20:00,91.2,72.8,29.90,West,259,0.0,1.0,55,0.00,,,0.00,Wunderground v.1.15,2016-07-24 21:20:00,
2016-07-24 17:25:00,91.0,73.7,29.90,West,259,0.0,1.0,57,0.00,,,0.00,Wunderground v.1.15,2016-07-24 21:25:00,
2016-07-24 17:30:00,91.2,72.8,29.90,West,277,0.0,0.0,55,0.00,,,0.00,Wunderground v.1.15,2016-07-24 21:30:00,
2016-07-24 17:35:00,91.4,73.0,29.90,West,275,0.0,6.0,55,0.00,,,0.00,Wunderground v.1.15,2016-07-24 21:35:00,
2016-07-24 17:40:00,91.6,73.1,29.90,WSW,250,5.0,5.0,55,0.00,,,0.00,Wunderground v.1.15,2016-07-24 21:40:00,
2016-07-24 17:45:00,91.8,73.9,29.90,WSW,250,0.0,5.0,56,0.00,,,0.00,Wunderground v.1.15,2016-07-24 21:45:00,
2016-07-24 17:50:00,92.1,74.1,29.90,West,275,0.0,4.0,56,0.00,,,0.00,Wunderground v.1.15,2016-07-24 21:50:00,